Time;durP1;ratioP1;P1;durP2;ratioP2;P2;SDS_P1;SDS_P2;PMS_P1;PMS_P2;Temp;Humidity;BMP_temperature;BMP_pressure;BME280_temperature;BME280_humidity;BME280_pressure;Samples;Min_cycle;Max_cycle;Signal;HPM_P1;HPM_P2
2022/05/08 00:00:43;;;;;;;0.40;0.20;;;;;;;15.04;57.40;100907.34;103345;1278;108944;-66
2022/05/08 00:03:11;;;;;;;0.40;0.20;;;;;;;15.04;57.47;100908.36;103714;1278;94746;-64
2022/05/08 00:05:39;;;;;;;0.40;0.20;;;;;;;15.05;57.34;100902.98;103479;1278;94598;-65
2022/05/08 00:08:09;;;;;;;0.40;0.20;;;;;;;15.06;57.23;100903.29;103872;1277;108387;-65
2022/05/08 00:10:37;;;;;;;0.40;0.20;;;;;;;15.02;57.35;100902.91;103494;1278;99812;-65
2022/05/08 00:13:06;;;;;;;0.40;0.20;;;;;;;14.97;57.36;100900.60;103453;1278;108755;-66
2022/05/08 00:15:33;;;;;;;0.40;0.20;;;;;;;15.01;57.34;100899.36;104020;1277;94762;-65
2022/05/08 00:18:01;;;;;;;0.40;0.30;;;;;;;15.02;57.35;100895.06;103460;1278;94817;-66
2022/05/08 00:20:30;;;;;;;0.40;0.20;;;;;;;14.97;57.32;100895.43;103409;1278;107911;-65
2022/05/08 00:22:59;;;;;;;0.40;0.20;;;;;;;14.86;57.35;100893.14;103557;1278;98208;-64
2022/05/08 00:25:27;;;;;;;0.40;0.20;;;;;;;14.80;57.70;100897.11;103503;1277;108822;-66
2022/05/08 00:27:55;;;;;;;0.40;0.20;;;;;;;14.78;57.80;100892.36;103480;1280;94904;-65
2022/05/08 00:30:23;;;;;;;0.40;0.30;;;;;;;14.79;57.60;100893.21;103549;1277;94610;-64
2022/05/08 00:32:51;;;;;;;0.40;0.20;;;;;;;14.84;57.09;100894.83;103550;1278;109037;-66
2022/05/08 00:35:19;;;;;;;0.40;0.20;;;;;;;14.81;57.34;100928.87;103580;1278;100579;-65
2022/05/08 00:37:47;;;;;;;0.40;0.30;;;;;;;14.58;57.77;100933.23;103610;1278;108840;-64
2022/05/08 00:40:15;;;;;;;0.40;0.20;;;;;;;14.51;57.86;100925.61;103495;1277;94345;-64
2022/05/08 00:42:44;;;;;;;0.40;0.20;;;;;;;14.51;57.38;100927.23;103571;1278;94289;-64
2022/05/08 00:45:14;;;;;;;0.40;0.20;;;;;;;14.62;57.27;100925.95;103561;1277;108900;-65
2022/05/08 00:47:42;;;;;;;0.40;0.20;;;;;;;14.66;57.60;100918.89;103525;1277;99451;-65
2022/05/08 00:50:10;;;;;;;0.40;0.30;;;;;;;14.74;57.25;100927.88;103909;1278;109297;-65
2022/05/08 00:52:38;;;;;;;0.40;0.30;;;;;;;14.90;56.95;100920.71;103565;1277;94717;-64
2022/05/08 00:55:06;;;;;;;0.40;0.20;;;;;;;14.99;56.51;100919.47;103570;1278;94561;-65
2022/05/08 00:57:36;;;;;;;0.40;0.20;;;;;;;14.99;56.95;100917.69;103794;1277;108494;-66
2022/05/08 01:00:08;;;;;;;0.40;0.30;;;;;;;15.02;56.82;100913.83;103549;1278;99821;-65
2022/05/08 01:02:37;;;;;;;0.40;0.20;;;;;;;15.02;57.18;100909.73;103548;1278;107487;-66
2022/05/08 01:05:06;;;;;;;0.40;0.30;;;;;;;14.95;57.35;100907.29;103505;1278;94468;-66
2022/05/08 01:07:34;;;;;;;0.40;0.20;;;;;;;14.96;57.55;100909.58;103515;1277;94712;-66
2022/05/08 01:10:02;;;;;;;0.40;0.20;;;;;;;15.02;57.09;100907.21;103553;1278;108337;-65
2022/05/08 01:12:32;;;;;;;0.40;0.20;;;;;;;15.10;57.01;100912.30;103530;1280;99525;-66
2022/05/08 01:15:15;;;;;;;0.40;0.30;;;;;;;15.00;57.31;100907.63;103731;1277;107964;-66
2022/05/08 01:17:43;;;;;;;0.40;0.20;;;;;;;14.82;57.82;100901.85;103634;1277;94324;-65
2022/05/08 01:20:12;;;;;;;0.40;0.20;;;;;;;14.79;58.34;100903.02;103589;1278;95444;-65
2022/05/08 01:22:41;;;;;;;0.40;0.30;;;;;;;14.80;58.36;100901.20;103523;1276;108372;-66
2022/05/08 01:25:08;;;;;;;0.40;0.20;;;;;;;14.94;58.16;100899.78;103681;1276;99439;-65
2022/05/08 01:27:36;;;;;;;0.40;0.20;;;;;;;15.02;58.05;100900.76;103570;1276;108475;-66
2022/05/08 01:30:05;;;;;;;0.40;0.20;;;;;;;15.00;57.92;100893.70;103587;1276;94477;-66
2022/05/08 01:32:33;;;;;;;0.40;0.20;;;;;;;15.13;57.52;100899.31;103703;1276;94329;-65
2022/05/08 01:35:02;;;;;;;0.40;0.20;;;;;;;15.22;57.42;100898.05;103640;1277;108406;-65
2022/05/08 01:37:30;;;;;;;0.40;0.20;;;;;;;15.25;57.52;100893.83;103910;1276;99425;-64
2022/05/08 01:39:58;;;;;;;0.40;0.20;;;;;;;15.11;57.72;100891.88;103550;1276;108836;-63
2022/05/08 01:42:27;;;;;;;0.40;0.20;;;;;;;14.96;58.07;100889.92;103602;1276;94313;-66
2022/05/08 01:44:55;;;;;;;0.40;0.20;;;;;;;14.94;58.05;100891.04;103668;1276;95079;-65
2022/05/08 01:50:10;;;;;;;0.40;0.20;;;;;;;15.10;57.50;100896.91;103667;1276;99689;-65
2022/05/08 01:52:38;;;;;;;0.40;0.20;;;;;;;15.20;57.22;100892.08;103609;1275;108831;-64
2022/05/08 01:55:06;;;;;;;0.40;0.20;;;;;;;15.26;56.91;100887.20;103643;1276;94732;-66
2022/05/08 01:57:34;;;;;;;0.40;0.20;;;;;;;15.32;56.65;100887.14;103805;1275;94817;-66
2022/05/08 02:00:04;;;;;;;0.40;0.20;;;;;;;15.37;56.36;100891.94;103633;1276;109075;-65
2022/05/08 02:02:43;;;;;;;0.40;0.20;;;;;;;15.36;56.50;100891.25;103614;1276;99433;-65
2022/05/08 02:05:11;;;;;;;0.40;0.20;;;;;;;15.34;56.93;100889.20;103753;1276;109132;-65
2022/05/08 02:07:39;;;;;;;0.40;0.20;;;;;;;15.28;57.08;100893.74;103555;1275;94306;-65
2022/05/08 02:10:07;;;;;;;0.40;0.30;;;;;;;15.31;56.99;100888.41;103625;1276;94303;-64
2022/05/08 02:12:35;;;;;;;0.40;0.20;;;;;;;15.32;57.04;100886.96;103541;1276;108307;-64
2022/05/08 02:15:05;;;;;;;0.40;0.20;;;;;;;15.36;56.49;100890.20;103612;1276;98383;-65
2022/05/08 02:17:34;;;;;;;0.40;0.20;;;;;;;15.33;56.90;100886.21;103706;1276;108853;-66
2022/05/08 02:20:04;;;;;;;0.40;0.20;;;;;;;15.36;56.81;100886.96;104016;1274;94728;-65
2022/05/08 02:22:33;;;;;;;0.40;0.20;;;;;;;15.40;56.79;100884.14;103618;1276;94332;-63
2022/05/08 02:25:01;;;;;;;0.40;0.20;;;;;;;15.38;56.85;100886.71;103585;1276;107262;-63
2022/05/08 02:27:40;;;;;;;0.40;0.20;;;;;;;15.37;56.63;100884.06;103615;1276;97878;-65
2022/05/08 02:30:10;;;;;;;0.40;0.20;;;;;;;15.33;57.02;100881.19;103784;1276;108911;-63
2022/05/08 02:32:39;;;;;;;0.40;0.20;;;;;;;15.26;57.42;100882.54;103625;1276;94767;-65
2022/05/08 02:35:09;;;;;;;0.40;0.20;;;;;;;15.28;57.12;100882.98;103555;1276;94924;-65
2022/05/08 02:37:41;;;;;;;0.40;0.20;;;;;;;15.35;56.90;100882.91;103625;1276;108631;-65
2022/05/08 02:40:10;;;;;;;0.40;0.30;;;;;;;15.43;56.53;100885.66;103587;1276;100332;-64
2022/05/08 02:42:39;;;;;;;0.40;0.20;;;;;;;15.46;56.41;100884.81;103629;1276;108864;-64
2022/05/08 02:45:10;;;;;;;0.40;0.20;;;;;;;15.45;56.25;100887.71;103550;1277;94296;-66
2022/05/08 02:47:41;;;;;;;0.40;0.20;;;;;;;15.44;56.21;100889.16;103853;1276;94601;-64
2022/05/08 02:50:10;;;;;;;0.40;0.20;;;;;;;15.44;56.26;100889.70;103622;1276;108239;-64
2022/05/08 02:52:39;;;;;;;0.40;0.20;;;;;;;15.36;56.54;100889.66;103728;1276;100865;-66
2022/05/08 03:00:46;;;;;;;0.40;0.20;;;;;;;15.30;56.38;100893.11;103600;1276;95374;-65
2022/05/08 03:03:15;;;;;;;0.40;0.20;;;;;;;15.39;56.16;100895.29;103771;1275;108915;-65
2022/05/08 03:05:45;;;;;;;0.40;0.20;;;;;;;15.47;55.80;100897.66;103662;1276;99580;-65
2022/05/08 03:08:15;;;;;;;0.40;0.20;;;;;;;15.49;55.65;100897.58;103581;1276;108795;-65
2022/05/08 03:13:36;;;;;;;0.40;0.20;;;;;;;15.28;56.90;100898.73;103582;1277;94684;-62
2022/05/08 03:16:07;;;;;;;0.40;0.20;;;;;;;15.27;56.79;100900.02;103767;1276;108444;-65
2022/05/08 03:18:36;;;;;;;0.40;0.20;;;;;;;15.33;56.56;100898.39;103776;1276;99748;-66
2022/05/08 03:21:08;;;;;;;0.40;0.20;;;;;;;15.32;56.56;100893.92;103731;1276;108849;-64
2022/05/08 03:23:39;;;;;;;0.40;0.20;;;;;;;15.30;56.67;100899.38;103582;1274;94312;-65
2022/05/08 03:26:07;;;;;;;0.40;0.20;;;;;;;15.17;57.07;100902.71;103735;1274;94977;-63
2022/05/08 03:28:38;;;;;;;0.40;0.20;;;;;;;15.13;57.15;100905.76;103861;1277;108389;-66
2022/05/08 03:31:07;;;;;;;0.40;0.20;;;;;;;15.19;57.08;100909.80;103853;1276;99695;-64
2022/05/08 03:33:37;;;;;;;0.40;0.20;;;;;;;15.27;56.86;100915.23;103758;1276;108858;-65
2022/05/08 03:36:06;;;;;;;0.40;0.20;;;;;;;15.25;57.38;100910.48;103843;1276;94736;-65
2022/05/08 03:38:35;;;;;;;0.40;0.20;;;;;;;15.13;57.56;100916.63;103924;1276;94826;-64
2022/05/08 03:41:03;;;;;;;0.40;0.20;;;;;;;15.10;57.77;100916.77;103828;1276;108941;-66
2022/05/08 03:43:31;;;;;;;0.40;0.20;;;;;;;15.13;57.42;100920.42;103667;1276;99366;-66
2022/05/08 03:45:59;;;;;;;0.40;0.20;;;;;;;15.04;57.80;100921.42;103667;1276;108800;-66
2022/05/08 03:48:27;;;;;;;0.40;0.20;;;;;;;15.03;57.46;100922.52;103629;1275;94711;-65
2022/05/08 03:50:55;;;;;;;0.40;0.20;;;;;;;14.99;57.30;100919.27;103560;1274;94296;-64
2022/05/08 03:53:23;;;;;;;0.40;0.20;;;;;;;15.00;56.86;100922.10;103655;1277;108388;-65
2022/05/08 03:55:51;;;;;;;0.40;0.20;;;;;;;15.10;56.56;100920.71;103425;1277;335369;-66
2022/05/08 03:58:19;;;;;;;0.40;0.20;;;;;;;15.11;56.69;100925.86;103564;1276;108964;-64
2022/05/08 04:00:47;;;;;;;0.40;0.30;;;;;;;15.09;56.41;100931.45;103593;1276;96521;-65
2022/05/08 04:03:15;;;;;;;0.40;0.20;;;;;;;15.02;56.95;100934.56;103582;1276;94694;-64
2022/05/08 04:05:43;;;;;;;0.40;0.20;;;;;;;15.02;56.67;100935.45;103621;1277;107989;-64
2022/05/08 04:08:11;;;;;;;0.40;0.20;;;;;;;15.10;56.84;100939.64;103632;1276;99759;-63
2022/05/08 04:10:39;;;;;;;0.40;0.20;;;;;;;15.06;57.52;100936.38;103596;1276;109137;-65
2022/05/08 04:13:07;;;;;;;0.40;0.20;;;;;;;15.10;57.48;100941.96;103535;1275;94678;-63
2022/05/08 04:18:21;;;;;;;0.40;0.20;;;;;;;15.24;56.91;100953.62;103554;1276;108419;-64
2022/05/08 04:20:49;;;;;;;0.40;0.20;;;;;;;15.18;56.82;100953.33;103579;1276;99440;-64
2022/05/08 04:26:03;;;;;;;0.40;0.20;;;;;;;15.20;56.94;100954.33;103548;1277;94364;-65
2022/05/08 04:28:31;;;;;;;0.40;0.20;;;;;;;15.29;56.84;100956.13;103644;1277;94700;-63
2022/05/08 04:30:59;;;;;;;0.40;0.20;;;;;;;15.32;57.21;100953.15;103614;1277;108078;-65
2022/05/08 04:33:27;;;;;;;0.40;0.20;;;;;;;15.32;57.36;100949.92;103593;1276;99364;-65
2022/05/08 04:35:55;;;;;;;0.40;0.20;;;;;;;15.33;57.55;100945.60;103604;1277;108808;-64
2022/05/08 04:38:23;;;;;;;0.40;0.20;;;;;;;15.32;57.72;100952.27;103555;1276;94473;-64
2022/05/08 04:40:50;;;;;;;0.40;0.20;;;;;;;15.33;57.11;100949.02;103530;1276;94738;-64
2022/05/08 04:43:18;;;;;;;0.40;0.20;;;;;;;15.39;56.99;100954.67;103542;1276;108433;-64
2022/05/08 04:45:46;;;;;;;0.40;0.20;;;;;;;15.40;57.23;100952.51;103658;1276;99343;-65
2022/05/08 04:48:15;;;;;;;0.40;0.20;;;;;;;15.40;56.54;100957.86;103679;1276;108786;-65
2022/05/08 04:50:43;;;;;;;0.40;0.20;;;;;;;15.34;56.57;100963.81;103728;1277;94303;-64
2022/05/08 04:53:11;;;;;;;0.40;0.20;;;;;;;15.28;56.82;100964.59;103613;1275;94806;-65
2022/05/08 04:55:39;;;;;;;0.40;0.20;;;;;;;15.34;56.83;100967.02;103586;1276;108061;-65
2022/05/08 04:58:08;;;;;;;0.40;0.20;;;;;;;15.44;57.01;100962.92;103479;1276;98452;-66
2022/05/08 05:00:36;;;;;;;0.40;0.20;;;;;;;15.46;56.60;100965.54;103596;1276;109285;-66
2022/05/08 05:03:04;;;;;;;0.40;0.20;;;;;;;15.53;56.37;100971.35;103600;1277;94365;-65
2022/05/08 05:05:34;;;;;;;0.40;0.20;;;;;;;15.59;56.40;100967.73;103730;1276;94579;-65
2022/05/08 05:08:02;;;;;;;0.40;0.20;;;;;;;15.53;56.68;100966.48;103657;1276;108433;-65
2022/05/08 05:10:30;;;;;;;0.40;0.20;;;;;;;15.62;56.59;100967.41;103534;1276;99412;-65
2022/05/08 05:12:58;;;;;;;0.40;0.20;;;;;;;15.69;56.32;100966.95;103569;1276;108841;-66
2022/05/08 05:15:27;;;;;;;0.40;0.20;;;;;;;15.73;56.18;100967.34;103835;1276;94427;-64
2022/05/08 05:17:58;;;;;;;0.40;0.20;;;;;;;15.85;56.02;100967.84;103565;1275;94594;-65
2022/05/08 05:20:26;;;;;;;0.40;0.20;;;;;;;15.92;55.88;100970.60;103862;1276;108410;-65
2022/05/08 05:22:54;;;;;;;0.40;0.20;;;;;;;15.93;55.83;100977.38;103592;1276;100034;-65
2022/05/08 05:25:21;;;;;;;0.40;0.20;;;;;;;15.97;55.84;100980.96;103553;1276;108870;-63
2022/05/08 05:27:49;;;;;;;0.40;0.20;;;;;;;15.99;55.88;100982.88;103608;1276;94452;-64
2022/05/08 05:30:18;;;;;;;0.40;0.20;;;;;;;16.02;56.01;100987.92;103642;1276;94599;-65
2022/05/08 05:32:45;;;;;;;0.40;0.20;;;;;;;16.02;55.89;100988.99;103553;1277;108436;-65
2022/05/08 05:35:13;;;;;;;0.40;0.20;;;;;;;15.96;56.12;100990.83;103571;1277;99857;-64
2022/05/08 05:37:41;;;;;;;0.40;0.20;;;;;;;15.98;56.20;100995.44;103634;1277;108387;-65
2022/05/08 05:40:10;;;;;;;0.40;0.20;;;;;;;16.04;56.40;100996.44;103563;1276;94308;-65
2022/05/08 05:42:39;;;;;;;0.40;0.20;;;;;;;16.15;56.29;100999.95;103689;1275;96411;-65
2022/05/08 05:45:07;;;;;;;0.40;0.20;;;;;;;16.21;56.18;100998.48;103659;1276;108594;-65
2022/05/08 05:47:50;;;;;;;0.40;0.20;;;;;;;16.26;56.20;101002.20;104217;1276;98054;-64
2022/05/08 05:50:23;;;;;;;0.40;0.20;;;;;;;16.33;56.09;101003.02;103623;1276;109036;-64
2022/05/08 05:52:52;;;;;;;0.40;0.20;;;;;;;16.33;56.21;101005.16;103663;1277;94242;-65
2022/05/08 05:55:20;;;;;;;0.40;0.20;;;;;;;16.35;56.46;101009.70;103197;1277;95215;-65
2022/05/08 05:57:48;;;;;;;0.40;0.20;;;;;;;16.41;56.59;101007.88;103664;1277;108524;-65
2022/05/08 06:00:20;;;;;;;0.40;0.20;;;;;;;16.43;56.47;101011.20;103886;1276;99374;-65
2022/05/08 06:02:48;;;;;;;0.40;0.20;;;;;;;16.54;56.49;101007.86;103651;1276;109010;-65
2022/05/08 06:05:16;;;;;;;0.40;0.20;;;;;;;16.61;56.62;101015.48;103502;1276;94759;-64
2022/05/08 06:07:45;;;;;;;0.40;0.20;;;;;;;16.63;56.84;101022.20;103562;1276;94327;-64
2022/05/08 06:10:14;;;;;;;0.40;0.20;;;;;;;16.71;57.03;101020.98;103875;1275;108792;-64
2022/05/08 06:12:42;;;;;;;0.40;0.20;;;;;;;16.86;56.89;101022.13;103789;1277;99468;-64
2022/05/08 06:15:10;;;;;;;0.40;0.20;;;;;;;16.97;56.70;101022.80;103589;1276;108935;-64
2022/05/08 06:17:38;;;;;;;0.40;0.20;;;;;;;17.00;56.59;101025.91;103530;1277;95597;-65
2022/05/08 06:20:07;;;;;;;0.40;0.20;;;;;;;17.06;56.86;101023.29;103528;1276;94853;-65
2022/05/08 06:22:35;;;;;;;0.40;0.20;;;;;;;17.27;56.81;101023.30;103881;1276;108811;-66
2022/05/08 06:25:04;;;;;;;0.40;0.20;;;;;;;17.69;55.81;101022.64;103724;1276;100232;-65
2022/05/08 06:27:32;;;;;;;0.40;0.20;;;;;;;18.06;54.90;101017.19;106676;1275;108789;-64
2022/05/08 06:30:00;;;;;;;0.40;0.10;;;;;;;18.64;53.55;101019.03;103605;1276;94346;-66
2022/05/08 06:32:30;;;;;;;0.40;0.10;;;;;;;18.82;53.31;101014.88;103708;1276;95692;-66
2022/05/08 06:35:15;;;;;;;0.40;0.10;;;;;;;18.91;52.80;101017.90;103796;1276;108457;-65
2022/05/08 06:37:43;;;;;;;0.40;0.10;;;;;;;18.94;52.84;101022.04;103676;1277;99402;-65
2022/05/08 06:40:12;;;;;;;0.40;0.10;;;;;;;19.02;52.78;101024.35;103518;1276;108947;-64
2022/05/08 06:42:40;;;;;;;0.40;0.10;;;;;;;19.11;52.77;101021.17;103599;1277;94375;-65
2022/05/08 06:45:08;;;;;;;0.40;0.10;;;;;;;19.15;52.51;101020.61;103674;1275;94416;-65
2022/05/08 06:47:36;;;;;;;0.40;0.10;;;;;;;19.22;52.63;101017.73;103675;1277;108295;-61
2022/05/08 06:50:06;;;;;;;0.40;0.10;;;;;;;19.26;52.48;101021.86;103702;1276;99361;-67
2022/05/08 06:52:34;;;;;;;0.40;0.10;;;;;;;19.28;52.42;101021.00;103506;1276;108846;-65
2022/05/08 06:55:02;;;;;;;0.40;0.10;;;;;;;19.29;52.44;101020.80;103591;1277;94816;-65
2022/05/08 06:57:30;;;;;;;0.40;0.10;;;;;;;19.26;52.24;101024.54;103523;1276;94473;-66
2022/05/08 07:02:45;;;;;;;0.40;0.10;;;;;;;19.26;52.23;101027.98;103557;1276;99415;-65
2022/05/08 07:05:13;;;;;;;0.40;0.10;;;;;;;19.27;52.46;101028.98;103608;1276;108953;-65
2022/05/08 07:07:41;;;;;;;0.40;0.10;;;;;;;19.28;51.87;101028.40;103487;1275;94312;-65
2022/05/08 07:10:10;;;;;;;0.40;0.10;;;;;;;19.21;52.08;101030.05;103589;1277;94895;-66
2022/05/08 07:12:38;;;;;;;0.40;0.20;;;;;;;19.26;52.01;101029.45;103555;1277;108652;-64
2022/05/08 07:15:07;;;;;;;0.40;0.10;;;;;;;19.30;51.50;101030.44;103612;1276;99507;-64
2022/05/08 07:17:35;;;;;;;0.40;0.10;;;;;;;19.25;51.30;101029.98;103661;1277;108800;-64
2022/05/08 07:20:04;;;;;;;0.40;0.10;;;;;;;19.15;51.37;101033.02;103644;1277;94680;-65
2022/05/08 07:22:35;;;;;;;0.40;0.10;;;;;;;19.12;51.18;101034.49;103704;1276;94392;-64
2022/05/08 07:25:03;;;;;;;0.40;0.10;;;;;;;18.97;51.19;101033.25;103599;1277;108522;-66
2022/05/08 07:27:36;;;;;;;0.40;0.10;;;;;;;18.90;51.41;101030.73;103603;1276;99457;-66
2022/05/08 07:30:04;;;;;;;0.40;0.10;;;;;;;18.81;51.49;101035.79;103571;1276;108878;-63
2022/05/08 07:32:35;;;;;;;0.40;0.10;;;;;;;18.76;51.92;101037.31;103581;1277;94285;-64
2022/05/08 07:37:51;;;;;;;0.40;0.10;;;;;;;18.77;52.11;101037.67;103667;1276;108398;-65
2022/05/08 07:40:18;;;;;;;0.40;0.10;;;;;;;18.77;52.11;101037.63;103546;1275;99597;-64
2022/05/08 07:42:46;;;;;;;0.40;0.10;;;;;;;18.75;51.95;101039.73;103479;1276;109608;-65
2022/05/08 07:45:14;;;;;;;0.40;0.10;;;;;;;18.69;52.04;101038.92;103535;1276;95057;-64
2022/05/08 07:47:43;;;;;;;0.40;0.10;;;;;;;18.76;51.72;101039.16;103380;1277;94393;-65
2022/05/08 07:50:10;;;;;;;0.40;0.10;;;;;;;18.77;51.61;101047.38;103495;1276;106564;-65
2022/05/08 07:52:41;;;;;;;0.40;0.20;;;;;;;18.75;51.04;101048.73;103623;1276;99405;-65
2022/05/08 07:55:09;;;;;;;0.40;0.10;;;;;;;18.82;51.11;101044.58;103674;1277;109199;-63
2022/05/08 07:57:37;;;;;;;0.40;0.10;;;;;;;18.91;51.07;101046.35;103653;1277;94314;-64
2022/05/08 08:00:06;;;;;;;0.40;0.10;;;;;;;18.93;50.91;101048.39;103667;1277;94626;-64
2022/05/08 08:02:40;;;;;;;0.40;0.10;;;;;;;18.94;50.80;101047.98;103597;1276;108876;-66
2022/05/08 08:05:09;;;;;;;0.40;0.10;;;;;;;18.96;50.76;101050.75;103580;1277;99586;-65
2022/05/08 08:07:37;;;;;;;0.40;0.10;;;;;;;18.99;50.84;101053.83;103898;1277;108799;-65
2022/05/08 08:10:06;;;;;;;0.40;0.20;;;;;;;19.00;50.96;101054.34;103641;1276;94842;-65
2022/05/08 08:12:34;;;;;;;0.40;0.20;;;;;;;18.97;50.85;101053.77;103564;1276;94719;-65
2022/05/08 08:15:02;;;;;;;0.40;0.10;;;;;;;19.02;50.93;101054.03;103523;1277;107326;-64
2022/05/08 08:17:31;;;;;;;0.40;0.10;;;;;;;19.09;50.33;101058.56;103631;1277;99329;-65
2022/05/08 08:19:59;;;;;;;0.40;0.10;;;;;;;19.08;50.31;101062.92;103681;1277;108818;-64
2022/05/08 08:22:27;;;;;;;0.40;0.10;;;;;;;19.11;50.16;101064.56;103731;1277;94472;-65
2022/05/08 08:24:56;;;;;;;0.40;0.10;;;;;;;19.22;49.56;101065.80;103594;1276;94719;-65
2022/05/08 08:27:25;;;;;;;0.40;0.10;;;;;;;19.44;49.55;101060.89;103745;1277;108385;-66
2022/05/08 08:29:54;;;;;;;0.40;0.10;;;;;;;19.61;48.80;101062.71;103597;1277;98816;-68
2022/05/08 08:32:26;;;;;;;0.40;0.10;;;;;;;19.78;48.24;101059.81;103644;1277;108782;-67
2022/05/08 08:34:54;;;;;;;0.40;0.10;;;;;;;19.92;47.49;101061.39;103963;1277;94331;-67
2022/05/08 08:37:22;;;;;;;0.40;0.20;;;;;;;20.10;47.12;101058.60;103627;1275;94424;-65
2022/05/08 08:39:50;;;;;;;0.40;0.10;;;;;;;20.17;46.83;101058.23;103629;1277;108417;-65
2022/05/08 08:42:28;;;;;;;0.40;0.10;;;;;;;20.23;46.29;101061.48;103327;1277;99358;-65
2022/05/08 08:47:54;;;;;;;0.40;0.10;;;;;;;20.29;45.74;101066.36;103662;1277;95802;-66
2022/05/08 08:50:24;;;;;;;0.40;0.10;;;;;;;20.16;45.61;101069.98;103667;1274;94374;-66
2022/05/08 08:52:54;;;;;;;0.40;0.10;;;;;;;20.23;46.11;101070.70;103498;1277;109369;-66
2022/05/08 08:55:22;;;;;;;0.40;0.10;;;;;;;20.30;46.02;101071.73;103627;1277;99608;-66
2022/05/08 08:57:50;;;;;;;0.40;0.10;;;;;;;20.24;45.75;101072.61;103663;1275;108909;-64
2022/05/08 09:00:20;;;;;;;0.40;0.10;;;;;;;20.12;45.63;101072.58;103574;1275;94412;-65
2022/05/08 09:02:50;;;;;;;0.40;0.10;;;;;;;20.17;45.83;101075.15;103614;1275;95760;-66
2022/05/08 09:05:18;;;;;;;0.40;0.10;;;;;;;20.14;45.67;101076.79;103521;1276;108273;-65
2022/05/08 09:07:49;;;;;;;0.40;0.10;;;;;;;20.15;45.68;101075.27;103534;1274;98800;-65
2022/05/08 09:10:25;;;;;;;0.40;0.10;;;;;;;20.10;45.28;101075.77;103525;1275;108795;-65
2022/05/08 09:12:52;;;;;;;0.40;0.10;;;;;;;20.23;44.99;101073.77;103520;1274;94853;-65
2022/05/08 09:15:22;;;;;;;0.40;0.10;;;;;;;20.38;45.09;101077.09;103555;1274;95560;-66
2022/05/08 09:17:57;;;;;;;0.40;0.10;;;;;;;20.53;45.22;101076.59;103544;1277;109417;-66
2022/05/08 09:20:34;;;;;;;0.40;0.10;;;;;;;20.61;45.29;101074.34;103304;1275;98873;-66
2022/05/08 09:23:13;;;;;;;0.40;0.10;;;;;;;20.60;44.56;101078.85;103660;1275;109242;-66
2022/05/08 09:25:44;;;;;;;0.40;0.10;;;;;;;20.59;45.26;101072.80;103170;1275;94636;-65
2022/05/08 09:28:44;;;;;;;0.40;0.20;;;;;;;20.58;45.03;101072.17;102898;1275;94795;-66
2022/05/08 09:31:16;;;;;;;0.40;0.10;;;;;;;20.65;45.44;101071.39;103291;1275;108531;-65
2022/05/08 09:33:46;;;;;;;0.40;0.10;;;;;;;20.70;45.15;101070.39;103799;1275;100661;-65
2022/05/08 09:36:24;;;;;;;0.40;0.10;;;;;;;20.61;44.99;101070.02;102922;1274;110360;-65
2022/05/08 09:39:11;;;;;;;0.40;0.10;;;;;;;20.58;45.22;101074.84;103104;1277;95075;-65
2022/05/08 09:41:42;;;;;;;0.40;0.10;;;;;;;20.50;45.25;101071.01;102781;1275;94763;-65
2022/05/08 09:44:12;;;;;;;0.40;0.10;;;;;;;20.51;45.44;101074.49;102866;1274;109519;-65
2022/05/08 09:46:45;;;;;;;0.40;0.10;;;;;;;20.53;45.67;101075.10;103149;1274;100874;-66
2022/05/08 09:49:18;;;;;;;0.40;0.10;;;;;;;20.55;45.76;101074.83;104679;1274;109361;-63
2022/05/08 09:51:48;;;;;;;0.40;0.10;;;;;;;20.62;45.93;101076.63;102936;1274;94379;-65
2022/05/08 09:54:17;;;;;;;0.40;0.10;;;;;;;20.56;45.43;101076.23;107264;1274;92850;-65
2022/05/08 09:56:51;;;;;;;0.40;0.10;;;;;;;20.60;45.77;101078.19;103214;1274;108355;-65
2022/05/08 09:59:20;;;;;;;0.40;0.10;;;;;;;20.60;45.75;101074.23;105506;1274;99616;-67
2022/05/08 10:01:48;;;;;;;0.40;0.10;;;;;;;20.55;45.78;101077.19;103663;1275;108802;-64
2022/05/08 10:04:16;;;;;;;0.40;0.10;;;;;;;20.57;45.73;101076.17;103377;1274;94572;-63
2022/05/08 10:06:44;;;;;;;0.40;0.10;;;;;;;20.60;45.72;101078.70;102970;1275;94641;-63
2022/05/08 10:14:49;;;;;;;0.40;0.10;;;;;;;20.60;46.17;101081.95;102880;1274;109187;-63
2022/05/08 10:17:29;;;;;;;0.40;0.10;;;;;;;20.64;46.32;101083.52;103588;1274;96084;-64
2022/05/08 10:19:57;;;;;;;0.40;0.10;;;;;;;20.69;46.05;101078.22;105887;1274;95140;-64
2022/05/08 10:22:46;;;;;;;0.40;0.10;;;;;;;20.67;45.89;101077.77;103452;1278;108393;-66
2022/05/08 10:25:15;;;;;;;0.40;0.10;;;;;;;20.65;46.24;101075.70;103639;1274;99752;-65
2022/05/08 10:28:04;;;;;;;0.40;0.10;;;;;;;20.60;46.26;101079.96;103508;1277;108912;-65
2022/05/08 10:30:34;;;;;;;0.40;0.10;;;;;;;20.51;46.28;101086.26;103566;1275;94334;-64
2022/05/08 10:33:02;;;;;;;0.40;0.10;;;;;;;20.46;46.76;101086.00;103719;1274;95225;-65
2022/05/08 10:35:31;;;;;;;0.40;0.10;;;;;;;20.49;46.78;101083.66;103423;1275;108807;-64
2022/05/08 10:37:59;;;;;;;0.40;0.10;;;;;;;20.48;47.02;101084.05;104230;1274;99413;-63
2022/05/08 10:40:32;;;;;;;0.40;0.10;;;;;;;20.36;46.95;101085.65;103480;1277;108958;-64
2022/05/08 10:43:01;;;;;;;0.40;0.10;;;;;;;20.29;47.13;101082.80;103499;1275;94588;-64
2022/05/08 10:45:32;;;;;;;0.40;0.10;;;;;;;20.25;47.16;101083.19;103869;1277;94660;-65
2022/05/08 10:48:13;;;;;;;0.40;0.10;;;;;;;20.25;47.54;101081.39;103545;1276;108392;-63
2022/05/08 10:51:02;;;;;;;0.40;0.10;;;;;;;20.35;48.01;101076.50;103651;1277;99733;-65
2022/05/08 10:53:32;;;;;;;0.40;0.10;;;;;;;20.54;47.43;101069.48;103460;1274;109808;-65
2022/05/08 10:56:09;;;;;;;0.40;0.10;;;;;;;20.60;47.02;101072.23;103642;1277;94666;-66
2022/05/08 10:58:50;;;;;;;0.40;0.10;;;;;;;20.76;46.81;101070.94;103579;1277;94314;-64
2022/05/08 11:01:18;;;;;;;0.40;0.10;;;;;;;21.07;46.21;101067.33;103528;1275;109311;-65
2022/05/08 11:03:46;;;;;;;0.40;0.10;;;;;;;21.37;45.72;101066.08;103502;1275;99379;-65
2022/05/08 11:06:19;;;;;;;0.40;0.10;;;;;;;21.73;45.14;101063.53;103480;1277;108899;-65
2022/05/08 11:08:48;;;;;;;0.40;0.10;;;;;;;22.06;44.18;101061.26;104285;1274;94702;-65
2022/05/08 11:11:16;;;;;;;0.40;0.10;;;;;;;22.24;42.96;101061.37;103576;1277;94304;-64
2022/05/08 11:13:48;;;;;;;0.40;0.10;;;;;;;22.40;42.76;101055.31;103324;1275;109426;-66
2022/05/08 11:16:46;;;;;;;0.40;0.10;;;;;;;22.52;41.90;101052.70;103444;1275;99560;-65
2022/05/08 11:19:14;;;;;;;0.40;0.10;;;;;;;22.58;40.86;101050.86;103484;1277;108334;-65
2022/05/08 11:21:42;;;;;;;0.40;0.10;;;;;;;22.65;40.85;101046.05;103587;1277;94636;-65
2022/05/08 11:24:22;;;;;;;0.40;0.10;;;;;;;22.78;41.10;101042.30;104032;1277;95215;-65
2022/05/08 11:26:50;;;;;;;0.40;0.10;;;;;;;22.97;40.81;101037.80;103581;1274;107947;-66
2022/05/08 11:29:18;;;;;;;0.40;0.10;;;;;;;23.00;40.04;101041.19;103517;1274;98589;-65
2022/05/08 11:36:04;;;;;;;0.40;0.10;;;;;;;22.94;39.35;101039.77;103594;1275;109108;-65
2022/05/08 11:37:28;;;;;;;0.40;0.10;;;;;;;22.90;39.55;101038.05;103573;1274;94484;-65
2022/05/08 11:39:57;;;;;;;0.40;0.10;;;;;;;22.82;39.91;101029.53;103559;1277;108841;-65
2022/05/08 11:42:26;;;;;;;0.40;0.10;;;;;;;22.89;39.69;101024.02;103613;1275;99475;-65
2022/05/08 11:45:15;;;;;;;0.40;0.10;;;;;;;22.93;39.20;101024.25;103371;1275;109038;-65
2022/05/08 11:47:53;;;;;;;0.40;0.10;;;;;;;22.87;39.08;101016.70;103373;1274;94450;-65
2022/05/08 11:50:21;;;;;;;0.40;0.10;;;;;;;22.82;39.04;101017.04;103594;1274;94424;-65
2022/05/08 11:52:59;;;;;;;0.40;0.10;;;;;;;22.71;38.94;101017.81;103632;1275;108338;-63
2022/05/08 11:55:27;;;;;;;0.40;0.10;;;;;;;22.51;39.07;101004.27;103727;1275;99358;-65
2022/05/08 11:57:55;;;;;;;0.40;0.10;;;;;;;22.51;39.51;101005.95;103309;1277;109260;-64
2022/05/08 12:00:30;;;;;;;0.40;0.10;;;;;;;22.55;39.04;101004.23;103093;1277;94516;-66